sensor_id;sensor_type;location;lat;lon;timestamp;P1;durP1;ratioP1;P2;durP2;ratioP2
23236;SDS011;11787;52.018;8.570;2022-07-25T00:01:50;7.05;;;6.35;;
23236;SDS011;11787;52.018;8.570;2022-07-25T00:04:16;7.55;;;6.85;;
23236;SDS011;11787;52.018;8.570;2022-07-25T00:06:42;7.80;;;7.00;;
23236;SDS011;11787;52.018;8.570;2022-07-25T00:09:07;6.40;;;5.88;;
23236;SDS011;11787;52.018;8.570;2022-07-25T00:11:33;7.68;;;6.78;;
23236;SDS011;11787;52.018;8.570;2022-07-25T00:13:59;8.52;;;6.40;;
23236;SDS011;11787;52.018;8.570;2022-07-25T00:16:24;8.23;;;6.40;;
23236;SDS011;11787;52.018;8.570;2022-07-25T00:18:50;7.07;;;6.47;;
23236;SDS011;11787;52.018;8.570;2022-07-25T00:21:15;7.03;;;6.20;;
23236;SDS011;11787;52.018;8.570;2022-07-25T00:23:41;7.53;;;6.78;;
23236;SDS011;11787;52.018;8.570;2022-07-25T00:26:07;7.38;;;6.68;;
23236;SDS011;11787;52.018;8.570;2022-07-25T00:28:32;7.47;;;6.55;;
23236;SDS011;11787;52.018;8.570;2022-07-25T00:30:58;7.28;;;6.65;;
23236;SDS011;11787;52.018;8.570;2022-07-25T00:33:24;7.55;;;6.85;;
23236;SDS011;11787;52.018;8.570;2022-07-25T00:35:49;7.55;;;6.82;;
23236;SDS011;11787;52.018;8.570;2022-07-25T00:38:15;7.75;;;6.82;;
23236;SDS011;11787;52.018;8.570;2022-07-25T00:40:41;7.35;;;6.65;;
23236;SDS011;11787;52.018;8.570;2022-07-25T00:43:06;8.65;;;7.35;;
23236;SDS011;11787;52.018;8.570;2022-07-25T00:45:32;6.68;;;6.07;;
23236;SDS011;11787;52.018;8.570;2022-07-25T00:47:58;8.35;;;7.15;;
23236;SDS011;11787;52.018;8.570;2022-07-25T00:50:23;10.73;;;7.22;;
23236;SDS011;11787;52.018;8.570;2022-07-25T00:52:49;7.88;;;6.68;;
23236;SDS011;11787;52.018;8.570;2022-07-25T00:55:17;7.05;;;6.35;;
23236;SDS011;11787;52.018;8.570;2022-07-25T00:57:43;7.72;;;6.93;;
23236;SDS011;11787;52.018;8.570;2022-07-25T01:00:10;8.35;;;7.55;;
23236;SDS011;11787;52.018;8.570;2022-07-25T01:02:38;7.43;;;6.72;;
23236;SDS011;11787;52.018;8.570;2022-07-25T01:05:04;7.70;;;7.00;;
23236;SDS011;11787;52.018;8.570;2022-07-25T01:07:30;7.65;;;6.95;;
23236;SDS011;11787;52.018;8.570;2022-07-25T01:09:56;7.50;;;6.25;;
23236;SDS011;11787;52.018;8.570;2022-07-25T01:12:24;7.50;;;6.80;;
23236;SDS011;11787;52.018;8.570;2022-07-25T01:14:49;7.72;;;6.95;;
23236;SDS011;11787;52.018;8.570;2022-07-25T01:17:15;7.57;;;6.90;;
23236;SDS011;11787;52.018;8.570;2022-07-25T01:19:41;7.40;;;6.68;;
23236;SDS011;11787;52.018;8.570;2022-07-25T01:22:07;7.53;;;6.82;;
23236;SDS011;11787;52.018;8.570;2022-07-25T01:24:33;7.03;;;6.22;;
23236;SDS011;11787;52.018;8.570;2022-07-25T01:27:00;7.38;;;6.68;;
23236;SDS011;11787;52.018;8.570;2022-07-25T01:29:26;8.25;;;7.22;;
23236;SDS011;11787;52.018;8.570;2022-07-25T01:31:52;9.38;;;7.25;;
23236;SDS011;11787;52.018;8.570;2022-07-25T01:34:18;8.40;;;7.43;;
23236;SDS011;11787;52.018;8.570;2022-07-25T01:36:43;8.07;;;7.05;;
23236;SDS011;11787;52.018;8.570;2022-07-25T01:39:09;9.10;;;6.85;;
23236;SDS011;11787;52.018;8.570;2022-07-25T01:41:34;7.93;;;6.75;;
23236;SDS011;11787;52.018;8.570;2022-07-25T01:44:00;7.38;;;6.68;;
23236;SDS011;11787;52.018;8.570;2022-07-25T01:46:26;7.18;;;6.55;;
23236;SDS011;11787;52.018;8.570;2022-07-25T01:48:51;7.57;;;6.72;;
23236;SDS011;11787;52.018;8.570;2022-07-25T01:51:17;9.35;;;7.07;;
23236;SDS011;11787;52.018;8.570;2022-07-25T01:53:42;10.68;;;7.15;;
23236;SDS011;11787;52.018;8.570;2022-07-25T01:56:08;8.80;;;7.47;;
23236;SDS011;11787;52.018;8.570;2022-07-25T01:58:34;7.70;;;6.85;;
23236;SDS011;11787;52.018;8.570;2022-07-25T02:00:59;7.90;;;6.90;;
23236;SDS011;11787;52.018;8.570;2022-07-25T02:03:25;7.40;;;6.60;;
23236;SDS011;11787;52.018;8.570;2022-07-25T02:05:53;7.80;;;7.00;;
23236;SDS011;11787;52.018;8.570;2022-07-25T02:08:20;8.35;;;7.55;;
23236;SDS011;11787;52.018;8.570;2022-07-25T02:10:46;7.63;;;6.63;;
23236;SDS011;11787;52.018;8.570;2022-07-25T02:13:11;10.55;;;7.28;;
23236;SDS011;11787;52.018;8.570;2022-07-25T02:15:37;8.95;;;7.93;;
23236;SDS011;11787;52.018;8.570;2022-07-25T02:18:03;9.82;;;7.80;;
23236;SDS011;11787;52.018;8.570;2022-07-25T02:20:28;7.60;;;6.85;;
23236;SDS011;11787;52.018;8.570;2022-07-25T02:22:54;7.95;;;7.25;;
23236;SDS011;11787;52.018;8.570;2022-07-25T02:25:20;8.27;;;7.47;;
23236;SDS011;11787;52.018;8.570;2022-07-25T02:27:45;8.57;;;7.78;;
23236;SDS011;11787;52.018;8.570;2022-07-25T02:30:11;7.95;;;7.25;;
23236;SDS011;11787;52.018;8.570;2022-07-25T02:32:37;9.00;;;8.10;;
23236;SDS011;11787;52.018;8.570;2022-07-25T02:35:04;8.70;;;7.93;;
23236;SDS011;11787;52.018;8.570;2022-07-25T02:37:30;8.75;;;7.85;;
23236;SDS011;11787;52.018;8.570;2022-07-25T02:39:56;8.10;;;7.38;;
23236;SDS011;11787;52.018;8.570;2022-07-25T02:42:22;8.60;;;7.15;;
23236;SDS011;11787;52.018;8.570;2022-07-25T02:44:47;10.15;;;8.50;;
23236;SDS011;11787;52.018;8.570;2022-07-25T02:47:13;7.97;;;7.25;;
23236;SDS011;11787;52.018;8.570;2022-07-25T02:49:39;8.00;;;7.20;;
23236;SDS011;11787;52.018;8.570;2022-07-25T02:52:04;8.00;;;7.20;;
23236;SDS011;11787;52.018;8.570;2022-07-25T02:54:30;9.25;;;7.53;;
23236;SDS011;11787;52.018;8.570;2022-07-25T02:56:55;9.13;;;8.15;;
23236;SDS011;11787;52.018;8.570;2022-07-25T02:59:21;9.27;;;7.55;;
23236;SDS011;11787;52.018;8.570;2022-07-25T03:01:47;8.80;;;7.90;;
23236;SDS011;11787;52.018;8.570;2022-07-25T03:04:12;8.77;;;7.50;;
23236;SDS011;11787;52.018;8.570;2022-07-25T03:06:38;8.90;;;8.10;;
23236;SDS011;11787;52.018;8.570;2022-07-25T03:09:03;8.45;;;7.45;;
23236;SDS011;11787;52.018;8.570;2022-07-25T03:11:29;9.07;;;8.10;;
23236;SDS011;11787;52.018;8.570;2022-07-25T03:13:54;10.32;;;9.25;;
23236;SDS011;11787;52.018;8.570;2022-07-25T03:16:20;10.27;;;7.75;;
23236;SDS011;11787;52.018;8.570;2022-07-25T03:18:46;8.18;;;7.38;;
23236;SDS011;11787;52.018;8.570;2022-07-25T03:21:11;8.38;;;7.53;;
23236;SDS011;11787;52.018;8.570;2022-07-25T03:23:37;8.50;;;7.70;;
23236;SDS011;11787;52.018;8.570;2022-07-25T03:26:02;8.68;;;7.90;;
23236;SDS011;11787;52.018;8.570;2022-07-25T03:28:29;8.77;;;7.97;;
23236;SDS011;11787;52.018;8.570;2022-07-25T03:30:54;8.98;;;7.82;;
23236;SDS011;11787;52.018;8.570;2022-07-25T03:33:20;13.82;;;8.55;;
23236;SDS011;11787;52.018;8.570;2022-07-25T03:35:45;10.48;;;8.15;;
23236;SDS011;11787;52.018;8.570;2022-07-25T03:38:11;8.77;;;7.75;;
23236;SDS011;11787;52.018;8.570;2022-07-25T03:40:37;8.55;;;7.75;;
23236;SDS011;11787;52.018;8.570;2022-07-25T03:43:03;8.45;;;7.55;;
23236;SDS011;11787;52.018;8.570;2022-07-25T03:45:29;8.20;;;7.40;;
23236;SDS011;11787;52.018;8.570;2022-07-25T03:47:54;8.05;;;7.22;;
23236;SDS011;11787;52.018;8.570;2022-07-25T03:50:20;8.45;;;7.65;;
23236;SDS011;11787;52.018;8.570;2022-07-25T03:52:46;8.93;;;7.80;;
23236;SDS011;11787;52.018;8.570;2022-07-25T03:55:11;8.60;;;7.80;;
23236;SDS011;11787;52.018;8.570;2022-07-25T03:57:37;8.07;;;7.38;;
23236;SDS011;11787;52.018;8.570;2022-07-25T04:00:06;9.98;;;7.55;;
23236;SDS011;11787;52.018;8.570;2022-07-25T04:02:33;9.38;;;8.00;;
23236;SDS011;11787;52.018;8.570;2022-07-25T04:05:01;8.75;;;7.80;;
23236;SDS011;11787;52.018;8.570;2022-07-25T04:07:27;8.32;;;7.43;;
23236;SDS011;11787;52.018;8.570;2022-07-25T04:09:53;8.45;;;7.45;;
23236;SDS011;11787;52.018;8.570;2022-07-25T04:12:18;8.52;;;7.72;;
23236;SDS011;11787;52.018;8.570;2022-07-25T04:14:44;9.20;;;8.00;;
23236;SDS011;11787;52.018;8.570;2022-07-25T04:17:10;8.25;;;7.50;;
23236;SDS011;11787;52.018;8.570;2022-07-25T04:19:35;9.63;;;7.80;;
23236;SDS011;11787;52.018;8.570;2022-07-25T04:22:01;8.65;;;7.45;;
23236;SDS011;11787;52.018;8.570;2022-07-25T04:24:27;9.18;;;8.32;;
23236;SDS011;11787;52.018;8.570;2022-07-25T04:26:52;10.57;;;8.70;;
23236;SDS011;11787;52.018;8.570;2022-07-25T04:29:18;8.82;;;7.95;;
23236;SDS011;11787;52.018;8.570;2022-07-25T04:31:43;8.52;;;7.40;;
23236;SDS011;11787;52.018;8.570;2022-07-25T04:34:09;10.05;;;8.23;;
23236;SDS011;11787;52.018;8.570;2022-07-25T04:36:35;8.95;;;7.75;;
23236;SDS011;11787;52.018;8.570;2022-07-25T04:39:00;8.55;;;7.75;;
23236;SDS011;11787;52.018;8.570;2022-07-25T04:41:26;8.93;;;8.00;;
23236;SDS011;11787;52.018;8.570;2022-07-25T04:43:52;9.55;;;6.97;;
23236;SDS011;11787;52.018;8.570;2022-07-25T04:46:18;8.73;;;7.82;;
23236;SDS011;11787;52.018;8.570;2022-07-25T04:48:44;9.07;;;8.27;;
23236;SDS011;11787;52.018;8.570;2022-07-25T04:51:10;8.07;;;7.28;;
23236;SDS011;11787;52.018;8.570;2022-07-25T04:53:36;8.25;;;7.40;;
23236;SDS011;11787;52.018;8.570;2022-07-25T04:56:01;7.95;;;7.15;;
23236;SDS011;11787;52.018;8.570;2022-07-25T04:58:27;7.72;;;6.82;;
23236;SDS011;11787;52.018;8.570;2022-07-25T05:00:53;9.18;;;7.72;;
23236;SDS011;11787;52.018;8.570;2022-07-25T05:03:18;8.85;;;7.95;;
23236;SDS011;11787;52.018;8.570;2022-07-25T05:05:44;10.75;;;7.82;;
23236;SDS011;11787;52.018;8.570;2022-07-25T05:08:09;12.15;;;7.22;;
23236;SDS011;11787;52.018;8.570;2022-07-25T05:10:35;8.52;;;7.15;;
23236;SDS011;11787;52.018;8.570;2022-07-25T05:13:00;7.85;;;7.07;;
23236;SDS011;11787;52.018;8.570;2022-07-25T05:15:26;9.60;;;7.13;;
23236;SDS011;11787;52.018;8.570;2022-07-25T05:17:52;7.45;;;6.75;;
23236;SDS011;11787;52.018;8.570;2022-07-25T05:22:43;7.43;;;6.72;;
23236;SDS011;11787;52.018;8.570;2022-07-25T05:25:09;8.27;;;6.28;;
23236;SDS011;11787;52.018;8.570;2022-07-25T08:37:07;6.60;;;5.95;;
23236;SDS011;11787;52.018;8.570;2022-07-25T08:39:33;8.30;;;5.45;;
23236;SDS011;11787;52.018;8.570;2022-07-25T08:41:58;5.95;;;5.45;;
23236;SDS011;11787;52.018;8.570;2022-07-25T08:44:26;6.53;;;5.35;;
23236;SDS011;11787;52.018;8.570;2022-07-25T08:47:00;5.80;;;5.20;;
23236;SDS011;11787;52.018;8.570;2022-07-25T08:49:26;5.93;;;5.07;;
23236;SDS011;11787;52.018;8.570;2022-07-25T08:51:53;8.63;;;6.13;;
23236;SDS011;11787;52.018;8.570;2022-07-25T08:54:20;5.50;;;4.97;;
23236;SDS011;11787;52.018;8.570;2022-07-25T08:56:47;6.45;;;5.13;;
23236;SDS011;11787;52.018;8.570;2022-07-25T08:59:12;6.15;;;5.55;;
23236;SDS011;11787;52.018;8.570;2022-07-25T09:01:38;6.97;;;5.57;;
23236;SDS011;11787;52.018;8.570;2022-07-25T09:04:06;8.27;;;5.45;;
23236;SDS011;11787;52.018;8.570;2022-07-25T09:06:33;8.25;;;5.68;;
23236;SDS011;11787;52.018;8.570;2022-07-25T09:08:59;6.13;;;5.43;;
23236;SDS011;11787;52.018;8.570;2022-07-25T09:11:35;6.40;;;5.47;;
23236;SDS011;11787;52.018;8.570;2022-07-25T09:16:40;6.25;;;5.28;;
23236;SDS011;11787;52.018;8.570;2022-07-25T09:21:38;5.68;;;5.05;;
23236;SDS011;11787;52.018;8.570;2022-07-25T09:24:16;5.72;;;5.22;;
23236;SDS011;11787;52.018;8.570;2022-07-25T09:26:52;7.53;;;5.22;;
23236;SDS011;11787;52.018;8.570;2022-07-25T09:29:20;6.10;;;5.35;;
23236;SDS011;11787;52.018;8.570;2022-07-25T09:31:49;5.45;;;4.95;;
23236;SDS011;11787;52.018;8.570;2022-07-25T09:34:16;5.38;;;4.88;;
23236;SDS011;11787;52.018;8.570;2022-07-25T09:37:11;5.70;;;5.10;;
23236;SDS011;11787;52.018;8.570;2022-07-25T09:44:43;5.70;;;5.15;;
23236;SDS011;11787;52.018;8.570;2022-07-25T09:47:10;5.95;;;5.25;;
23236;SDS011;11787;52.018;8.570;2022-07-25T09:49:40;5.65;;;5.15;;
23236;SDS011;11787;52.018;8.570;2022-07-25T09:52:09;7.00;;;5.45;;
23236;SDS011;11787;52.018;8.570;2022-07-25T09:54:36;7.20;;;5.40;;
23236;SDS011;11787;52.018;8.570;2022-07-25T09:57:02;5.45;;;4.93;;
23236;SDS011;11787;52.018;8.570;2022-07-25T09:59:28;5.50;;;4.95;;
23236;SDS011;11787;52.018;8.570;2022-07-25T10:01:59;7.32;;;5.10;;
23236;SDS011;11787;52.018;8.570;2022-07-25T10:26:15;5.82;;;5.32;;
23236;SDS011;11787;52.018;8.570;2022-07-25T10:28:47;7.38;;;5.55;;
23236;SDS011;11787;52.018;8.570;2022-07-25T10:31:14;6.63;;;5.35;;
23236;SDS011;11787;52.018;8.570;2022-07-25T10:33:52;6.53;;;5.20;;
23236;SDS011;11787;52.018;8.570;2022-07-25T10:36:20;5.95;;;5.28;;
23236;SDS011;11787;52.018;8.570;2022-07-25T10:38:46;5.50;;;5.00;;
23236;SDS011;11787;52.018;8.570;2022-07-25T10:41:15;5.82;;;5.32;;
23236;SDS011;11787;52.018;8.570;2022-07-25T10:43:42;6.35;;;5.75;;
23236;SDS011;11787;52.018;8.570;2022-07-25T10:46:13;5.68;;;5.18;;
23236;SDS011;11787;52.018;8.570;2022-07-25T10:48:42;7.38;;;5.32;;
23236;SDS011;11787;52.018;8.570;2022-07-25T10:51:10;6.50;;;5.00;;
23236;SDS011;11787;52.018;8.570;2022-07-25T10:53:38;6.00;;;5.23;;
23236;SDS011;11787;52.018;8.570;2022-07-25T10:56:17;6.32;;;5.03;;
23236;SDS011;11787;52.018;8.570;2022-07-25T10:58:50;5.97;;;5.40;;
23236;SDS011;11787;52.018;8.570;2022-07-25T11:03:50;5.53;;;5.03;;
23236;SDS011;11787;52.018;8.570;2022-07-25T11:06:27;5.18;;;4.78;;
23236;SDS011;11787;52.018;8.570;2022-07-25T11:09:02;7.30;;;4.95;;
23236;SDS011;11787;52.018;8.570;2022-07-25T11:11:32;5.55;;;4.88;;
23236;SDS011;11787;52.018;8.570;2022-07-25T11:13:59;5.82;;;4.88;;
23236;SDS011;11787;52.018;8.570;2022-07-25T11:16:25;5.40;;;4.80;;
23236;SDS011;11787;52.018;8.570;2022-07-25T11:18:51;5.85;;;5.13;;
23236;SDS011;11787;52.018;8.570;2022-07-25T11:21:18;6.00;;;5.15;;
23236;SDS011;11787;52.018;8.570;2022-07-25T11:23:48;5.32;;;4.78;;
23236;SDS011;11787;52.018;8.570;2022-07-25T11:26:15;7.18;;;5.15;;
23236;SDS011;11787;52.018;8.570;2022-07-25T11:28:48;5.35;;;4.85;;
23236;SDS011;11787;52.018;8.570;2022-07-25T11:31:15;8.20;;;4.80;;
23236;SDS011;11787;52.018;8.570;2022-07-25T11:33:43;7.75;;;5.10;;
23236;SDS011;11787;52.018;8.570;2022-07-25T11:36:12;5.55;;;4.97;;
23236;SDS011;11787;52.018;8.570;2022-07-25T11:38:38;5.60;;;5.07;;
23236;SDS011;11787;52.018;8.570;2022-07-25T11:41:05;6.03;;;5.35;;
23236;SDS011;11787;52.018;8.570;2022-07-25T11:43:31;5.70;;;5.10;;
23236;SDS011;11787;52.018;8.570;2022-07-25T11:45:58;8.55;;;5.03;;
23236;SDS011;11787;52.018;8.570;2022-07-25T11:48:29;5.72;;;5.20;;
23236;SDS011;11787;52.018;8.570;2022-07-25T11:50:57;6.32;;;4.85;;
23236;SDS011;11787;52.018;8.570;2022-07-25T11:53:37;5.72;;;5.22;;
23236;SDS011;11787;52.018;8.570;2022-07-25T11:56:15;6.47;;;5.13;;
23236;SDS011;11787;52.018;8.570;2022-07-25T11:58:58;7.40;;;5.32;;
23236;SDS011;11787;52.018;8.570;2022-07-25T12:01:24;6.22;;;4.82;;
23236;SDS011;11787;52.018;8.570;2022-07-25T12:06:31;5.50;;;5.00;;
23236;SDS011;11787;52.018;8.570;2022-07-25T12:08:57;7.82;;;5.40;;
23236;SDS011;11787;52.018;8.570;2022-07-25T12:11:33;5.97;;;5.40;;
23236;SDS011;11787;52.018;8.570;2022-07-25T12:14:02;8.63;;;5.57;;
23236;SDS011;11787;52.018;8.570;2022-07-25T12:16:28;6.90;;;5.35;;
23236;SDS011;11787;52.018;8.570;2022-07-25T12:18:55;6.70;;;4.97;;
23236;SDS011;11787;52.018;8.570;2022-07-25T12:21:20;6.43;;;5.05;;
23236;SDS011;11787;52.018;8.570;2022-07-25T12:23:46;6.20;;;5.30;;
23236;SDS011;11787;52.018;8.570;2022-07-25T12:26:12;6.32;;;5.65;;
23236;SDS011;11787;52.018;8.570;2022-07-25T12:28:38;7.55;;;5.03;;
23236;SDS011;11787;52.018;8.570;2022-07-25T12:31:04;4.97;;;4.53;;
23236;SDS011;11787;52.018;8.570;2022-07-25T12:33:30;5.97;;;5.25;;
23236;SDS011;11787;52.018;8.570;2022-07-25T12:35:56;5.93;;;5.00;;
23236;SDS011;11787;52.018;8.570;2022-07-25T12:38:23;6.03;;;5.28;;
23236;SDS011;11787;52.018;8.570;2022-07-25T12:40:48;6.40;;;5.40;;
23236;SDS011;11787;52.018;8.570;2022-07-25T12:43:14;7.78;;;5.03;;
23236;SDS011;11787;52.018;8.570;2022-07-25T12:45:40;6.50;;;4.70;;
23236;SDS011;11787;52.018;8.570;2022-07-25T12:48:06;5.65;;;5.15;;
23236;SDS011;11787;52.018;8.570;2022-07-25T12:50:32;5.60;;;5.03;;
23236;SDS011;11787;52.018;8.570;2022-07-25T12:52:58;5.13;;;4.63;;
23236;SDS011;11787;52.018;8.570;2022-07-25T12:55:24;6.38;;;5.25;;
23236;SDS011;11787;52.018;8.570;2022-07-25T12:57:50;5.65;;;5.05;;
23236;SDS011;11787;52.018;8.570;2022-07-25T13:00:19;5.50;;;5.00;;
23236;SDS011;11787;52.018;8.570;2022-07-25T13:02:47;5.63;;;5.03;;
23236;SDS011;11787;52.018;8.570;2022-07-25T13:05:15;5.68;;;5.10;;
23236;SDS011;11787;52.018;8.570;2022-07-25T13:07:42;7.45;;;5.05;;
23236;SDS011;11787;52.018;8.570;2022-07-25T13:10:08;5.20;;;4.70;;
23236;SDS011;11787;52.018;8.570;2022-07-25T13:12:34;6.40;;;4.90;;
23236;SDS011;11787;52.018;8.570;2022-07-25T13:15:00;5.25;;;4.75;;
23236;SDS011;11787;52.018;8.570;2022-07-25T13:17:26;5.65;;;4.90;;
23236;SDS011;11787;52.018;8.570;2022-07-25T13:19:51;5.78;;;5.03;;
23236;SDS011;11787;52.018;8.570;2022-07-25T13:22:17;6.15;;;4.95;;
23236;SDS011;11787;52.018;8.570;2022-07-25T13:24:43;8.27;;;5.20;;
23236;SDS011;11787;52.018;8.570;2022-07-25T13:27:09;8.23;;;5.47;;
23236;SDS011;11787;52.018;8.570;2022-07-25T13:29:34;6.35;;;5.43;;
23236;SDS011;11787;52.018;8.570;2022-07-25T13:32:00;6.78;;;5.38;;
23236;SDS011;11787;52.018;8.570;2022-07-25T13:34:27;7.38;;;5.43;;
23236;SDS011;11787;52.018;8.570;2022-07-25T13:36:52;7.75;;;5.35;;
23236;SDS011;11787;52.018;8.570;2022-07-25T13:39:18;6.38;;;5.47;;
23236;SDS011;11787;52.018;8.570;2022-07-25T13:41:46;6.05;;;5.45;;
23236;SDS011;11787;52.018;8.570;2022-07-25T13:44:12;10.48;;;5.88;;
23236;SDS011;11787;52.018;8.570;2022-07-25T13:46:39;8.27;;;5.50;;
23236;SDS011;11787;52.018;8.570;2022-07-25T13:49:05;6.28;;;5.65;;
23236;SDS011;11787;52.018;8.570;2022-07-25T13:51:31;6.50;;;5.90;;
23236;SDS011;11787;52.018;8.570;2022-07-25T13:53:56;8.27;;;5.63;;
23236;SDS011;11787;52.018;8.570;2022-07-25T13:56:22;8.48;;;5.65;;
23236;SDS011;11787;52.018;8.570;2022-07-25T13:58:48;7.65;;;6.00;;
23236;SDS011;11787;52.018;8.570;2022-07-25T14:01:13;6.20;;;5.70;;
23236;SDS011;11787;52.018;8.570;2022-07-25T14:03:39;12.00;;;6.32;;
23236;SDS011;11787;52.018;8.570;2022-07-25T14:06:07;7.85;;;6.43;;
23236;SDS011;11787;52.018;8.570;2022-07-25T14:08:35;7.47;;;6.03;;
23236;SDS011;11787;52.018;8.570;2022-07-25T14:11:01;7.43;;;6.05;;
23236;SDS011;11787;52.018;8.570;2022-07-25T14:13:29;9.90;;;6.53;;
23236;SDS011;11787;52.018;8.570;2022-07-25T14:15:56;7.80;;;7.00;;
23236;SDS011;11787;52.018;8.570;2022-07-25T14:18:22;7.35;;;6.13;;
23236;SDS011;11787;52.018;8.570;2022-07-25T14:20:48;8.98;;;6.25;;
23236;SDS011;11787;52.018;8.570;2022-07-25T14:23:14;6.75;;;6.05;;
23236;SDS011;11787;52.018;8.570;2022-07-25T14:25:40;11.75;;;6.30;;
23236;SDS011;11787;52.018;8.570;2022-07-25T14:28:06;8.00;;;6.13;;
23236;SDS011;11787;52.018;8.570;2022-07-25T14:30:32;6.63;;;6.00;;
23236;SDS011;11787;52.018;8.570;2022-07-25T14:32:58;7.07;;;5.88;;
23236;SDS011;11787;52.018;8.570;2022-07-25T14:35:23;8.93;;;6.20;;
23236;SDS011;11787;52.018;8.570;2022-07-25T14:37:49;6.22;;;5.60;;
23236;SDS011;11787;52.018;8.570;2022-07-25T14:40:15;6.38;;;5.78;;
23236;SDS011;11787;52.018;8.570;2022-07-25T14:42:40;5.40;;;4.90;;
23236;SDS011;11787;52.018;8.570;2022-07-25T14:45:06;6.60;;;5.03;;
23236;SDS011;11787;52.018;8.570;2022-07-25T14:47:33;6.93;;;4.93;;
23236;SDS011;11787;52.018;8.570;2022-07-25T14:49:58;6.93;;;4.53;;
23236;SDS011;11787;52.018;8.570;2022-07-25T14:52:24;7.30;;;4.30;;
23236;SDS011;11787;52.018;8.570;2022-07-25T14:54:50;10.23;;;4.30;;
23236;SDS011;11787;52.018;8.570;2022-07-25T14:57:15;6.07;;;4.43;;
23236;SDS011;11787;52.018;8.570;2022-07-25T15:04:33;8.77;;;3.80;;
23236;SDS011;11787;52.018;8.570;2022-07-25T16:49:02;4.40;;;2.13;;
23236;SDS011;11787;52.018;8.570;2022-07-25T16:51:27;4.93;;;2.15;;
23236;SDS011;11787;52.018;8.570;2022-07-25T16:53:53;6.40;;;2.13;;
23236;SDS011;11787;52.018;8.570;2022-07-25T16:56:19;5.97;;;2.28;;
23236;SDS011;11787;52.018;8.570;2022-07-25T16:58:45;5.43;;;2.17;;
23236;SDS011;11787;52.018;8.570;2022-07-25T19:34:16;5.90;;;3.20;;
23236;SDS011;11787;52.018;8.570;2022-07-25T19:36:42;7.55;;;3.38;;
23236;SDS011;11787;52.018;8.570;2022-07-25T19:39:09;6.03;;;3.08;;
23236;SDS011;11787;52.018;8.570;2022-07-25T19:41:36;6.95;;;3.20;;
23236;SDS011;11787;52.018;8.570;2022-07-25T19:44:02;8.30;;;3.40;;
23236;SDS011;11787;52.018;8.570;2022-07-25T19:46:28;6.72;;;2.90;;
23236;SDS011;11787;52.018;8.570;2022-07-25T19:48:58;7.45;;;2.88;;
23236;SDS011;11787;52.018;8.570;2022-07-25T19:51:25;7.97;;;3.38;;
23236;SDS011;11787;52.018;8.570;2022-07-25T19:53:51;7.45;;;3.03;;
23236;SDS011;11787;52.018;8.570;2022-07-25T19:56:17;6.65;;;2.90;;
23236;SDS011;11787;52.018;8.570;2022-07-25T19:58:43;6.28;;;3.25;;
23236;SDS011;11787;52.018;8.570;2022-07-25T20:01:10;8.18;;;3.88;;
23236;SDS011;11787;52.018;8.570;2022-07-25T20:03:36;5.63;;;2.72;;
23236;SDS011;11787;52.018;8.570;2022-07-25T20:06:01;7.22;;;2.72;;
23236;SDS011;11787;52.018;8.570;2022-07-25T20:08:27;7.38;;;3.15;;
23236;SDS011;11787;52.018;8.570;2022-07-25T20:10:53;6.65;;;2.67;;
23236;SDS011;11787;52.018;8.570;2022-07-25T20:13:18;5.72;;;2.70;;
23236;SDS011;11787;52.018;8.570;2022-07-25T20:15:44;7.78;;;2.20;;
23236;SDS011;11787;52.018;8.570;2022-07-25T20:18:10;6.55;;;2.08;;
23236;SDS011;11787;52.018;8.570;2022-07-25T20:20:35;5.15;;;2.35;;
23236;SDS011;11787;52.018;8.570;2022-07-25T20:23:02;7.13;;;2.30;;
23236;SDS011;11787;52.018;8.570;2022-07-25T20:25:28;6.15;;;1.80;;
23236;SDS011;11787;52.018;8.570;2022-07-25T20:27:53;4.28;;;1.77;;
23236;SDS011;11787;52.018;8.570;2022-07-25T20:30:19;7.78;;;2.05;;
23236;SDS011;11787;52.018;8.570;2022-07-25T20:32:45;7.65;;;2.10;;
23236;SDS011;11787;52.018;8.570;2022-07-25T20:35:11;5.93;;;1.80;;
23236;SDS011;11787;52.018;8.570;2022-07-25T20:37:37;6.03;;;1.73;;
23236;SDS011;11787;52.018;8.570;2022-07-25T20:40:03;7.93;;;2.00;;
23236;SDS011;11787;52.018;8.570;2022-07-25T20:42:30;6.53;;;2.15;;
23236;SDS011;11787;52.018;8.570;2022-07-25T20:44:56;9.23;;;2.10;;
23236;SDS011;11787;52.018;8.570;2022-07-25T20:47:21;5.45;;;1.85;;
23236;SDS011;11787;52.018;8.570;2022-07-25T20:49:47;6.25;;;1.98;;
23236;SDS011;11787;52.018;8.570;2022-07-25T20:52:13;6.13;;;2.42;;
23236;SDS011;11787;52.018;8.570;2022-07-25T20:54:38;7.22;;;1.98;;
23236;SDS011;11787;52.018;8.570;2022-07-25T20:57:06;6.57;;;1.75;;
23236;SDS011;11787;52.018;8.570;2022-07-25T20:59:32;5.68;;;1.98;;
23236;SDS011;11787;52.018;8.570;2022-07-25T21:01:58;4.88;;;1.15;;
23236;SDS011;11787;52.018;8.570;2022-07-25T21:04:24;6.85;;;1.55;;
23236;SDS011;11787;52.018;8.570;2022-07-25T21:06:49;8.27;;;2.05;;
23236;SDS011;11787;52.018;8.570;2022-07-25T21:09:15;7.65;;;1.45;;
23236;SDS011;11787;52.018;8.570;2022-07-25T21:11:41;7.63;;;1.70;;
23236;SDS011;11787;52.018;8.570;2022-07-25T21:14:06;5.78;;;1.60;;
23236;SDS011;11787;52.018;8.570;2022-07-25T21:16:32;4.70;;;1.40;;
23236;SDS011;11787;52.018;8.570;2022-07-25T21:18:58;4.90;;;1.60;;
23236;SDS011;11787;52.018;8.570;2022-07-25T21:21:24;6.03;;;1.63;;
23236;SDS011;11787;52.018;8.570;2022-07-25T21:23:51;6.22;;;1.58;;
23236;SDS011;11787;52.018;8.570;2022-07-25T21:26:17;7.55;;;2.03;;
23236;SDS011;11787;52.018;8.570;2022-07-25T21:28:43;5.90;;;1.70;;
23236;SDS011;11787;52.018;8.570;2022-07-25T21:31:09;5.93;;;1.50;;
23236;SDS011;11787;52.018;8.570;2022-07-25T21:33:35;5.50;;;1.60;;
23236;SDS011;11787;52.018;8.570;2022-07-25T21:36:01;3.05;;;1.40;;
23236;SDS011;11787;52.018;8.570;2022-07-25T21:38:27;6.60;;;1.35;;
23236;SDS011;11787;52.018;8.570;2022-07-25T21:40:53;6.20;;;1.30;;
23236;SDS011;11787;52.018;8.570;2022-07-25T21:43:19;5.22;;;1.48;;
23236;SDS011;11787;52.018;8.570;2022-07-25T21:45:44;10.40;;;2.00;;
23236;SDS011;11787;52.018;8.570;2022-07-25T21:48:10;4.07;;;1.35;;
23236;SDS011;11787;52.018;8.570;2022-07-25T21:50:36;5.55;;;1.38;;
23236;SDS011;11787;52.018;8.570;2022-07-25T21:53:05;6.53;;;1.20;;
23236;SDS011;11787;52.018;8.570;2022-07-25T21:55:33;7.00;;;1.15;;
23236;SDS011;11787;52.018;8.570;2022-07-25T21:57:59;6.72;;;1.75;;
23236;SDS011;11787;52.018;8.570;2022-07-25T22:00:25;6.97;;;1.58;;
23236;SDS011;11787;52.018;8.570;2022-07-25T22:02:51;6.65;;;1.75;;
23236;SDS011;11787;52.018;8.570;2022-07-25T22:05:17;8.95;;;1.70;;
23236;SDS011;11787;52.018;8.570;2022-07-25T22:07:43;5.93;;;1.27;;
23236;SDS011;11787;52.018;8.570;2022-07-25T22:10:10;4.22;;;1.20;;
23236;SDS011;11787;52.018;8.570;2022-07-25T22:12:37;6.40;;;1.40;;
23236;SDS011;11787;52.018;8.570;2022-07-25T22:15:04;5.68;;;1.55;;
23236;SDS011;11787;52.018;8.570;2022-07-25T22:17:30;5.57;;;1.40;;
23236;SDS011;11787;52.018;8.570;2022-07-25T22:19:56;4.97;;;1.27;;
23236;SDS011;11787;52.018;8.570;2022-07-25T22:22:22;7.05;;;1.50;;
23236;SDS011;11787;52.018;8.570;2022-07-25T22:24:47;6.28;;;1.70;;
23236;SDS011;11787;52.018;8.570;2022-07-25T22:27:13;4.47;;;1.42;;
23236;SDS011;11787;52.018;8.570;2022-07-25T22:29:39;7.97;;;1.67;;
23236;SDS011;11787;52.018;8.570;2022-07-25T22:32:04;8.48;;;1.42;;
23236;SDS011;11787;52.018;8.570;2022-07-25T22:34:30;3.58;;;1.17;;
23236;SDS011;11787;52.018;8.570;2022-07-25T22:36:56;9.10;;;1.48;;
23236;SDS011;11787;52.018;8.570;2022-07-25T22:39:21;5.40;;;1.13;;
23236;SDS011;11787;52.018;8.570;2022-07-25T22:41:47;6.10;;;1.02;;
23236;SDS011;11787;52.018;8.570;2022-07-25T22:44:13;3.88;;;1.08;;
23236;SDS011;11787;52.018;8.570;2022-07-25T22:46:39;5.57;;;1.05;;
23236;SDS011;11787;52.018;8.570;2022-07-25T22:49:04;6.20;;;1.20;;
23236;SDS011;11787;52.018;8.570;2022-07-25T22:51:30;5.63;;;1.17;;
23236;SDS011;11787;52.018;8.570;2022-07-25T22:53:56;6.75;;;1.20;;